Time;durP1;ratioP1;P1;durP2;ratioP2;P2;SDS_P1;SDS_P2;PMS_P1;PMS_P2;Temp;Humidity;BMP_temperature;BMP_pressure;BME280_temperature;BME280_humidity;BME280_pressure;Samples;Min_cycle;Max_cycle;Signal;HPM_P1;HPM_P2
2021/12/10 00:00:27;;;;;;;6.88;0.63;;;;;;;9.77;100.00;97279.47;5082258;28;20063;-53
2021/12/10 00:03:39;;;;;;;1.45;0.85;;;;;;;9.75;100.00;97265.34;5075055;28;20046;-53
2021/12/10 00:06:46;;;;;;;1.23;0.90;;;;;;;9.73;100.00;97290.16;5091404;28;20042;-53
2021/12/10 00:09:53;;;;;;;9.93;1.25;;;;;;;9.73;100.00;97306.06;5101080;28;20038;-58
2021/12/10 00:12:59;;;;;;;0.10;0.10;;;;;;;9.69;100.00;97317.50;5101175;28;20696;-54
2021/12/10 00:16:03;;;;;;;1.55;0.70;;;;;;;9.55;100.00;97318.75;5082401;28;20065;-54
2021/12/10 00:19:31;;;;;;;0.10;0.10;;;;;;;9.41;100.00;97317.22;5096005;28;20086;-53
2021/12/10 00:22:46;;;;;;;0.30;0.30;;;;;;;9.21;100.00;97317.00;5097254;28;20403;-53
2021/12/10 00:25:53;;;;;;;0.10;0.10;;;;;;;9.14;100.00;97312.81;5079761;28;20079;-53
2021/12/10 00:29:02;;;;;;;1.98;1.23;;;;;;;9.07;100.00;97319.00;5109419;28;20051;-53
2021/12/10 00:32:18;;;;;;;4.18;0.65;;;;;;;8.98;100.00;97316.59;5087779;28;20158;-52
2021/12/10 00:35:24;;;;;;;1.23;0.88;;;;;;;8.96;100.00;97330.25;5098800;28;20462;-53
2021/12/10 00:38:27;;;;;;;0.40;0.25;;;;;;;8.99;100.00;97329.19;5106357;28;20059;-53
2021/12/10 00:41:31;;;;;;;1.23;0.85;;;;;;;8.96;100.00;97330.25;5110435;28;20184;-53
2021/12/10 00:44:35;;;;;;;0.63;0.63;;;;;;;9.04;100.00;97337.47;5074954;28;20504;-53
2021/12/10 00:47:39;;;;;;;1.50;0.25;;;;;;;9.07;100.00;97346.75;5076323;28;20114;-53
2021/12/10 00:50:47;;;;;;;1.17;0.63;;;;;;;9.14;100.00;97346.91;5083501;28;20518;-52
2021/12/10 00:53:52;;;;;;;0.38;0.30;;;;;;;9.16;100.00;97344.34;5077873;28;20062;-53
2021/12/10 00:56:55;;;;;;;0.82;0.82;;;;;;;9.21;100.00;97345.53;5107008;28;20069;-52
2021/12/10 00:59:59;;;;;;;1.67;1.17;;;;;;;9.16;100.00;97338.78;5093835;28;20055;-53
2021/12/10 01:03:03;;;;;;;1.65;0.50;;;;;;;9.20;100.00;97349.59;5094682;28;20100;-52
2021/12/10 01:06:13;;;;;;;12.07;1.52;;;;;;;9.18;100.00;97352.88;5074083;28;20048;-52
2021/12/10 01:09:22;;;;;;;0.57;0.30;;;;;;;9.13;100.00;97367.63;5087441;28;20043;-52
2021/12/10 01:12:34;;;;;;;0.35;0.35;;;;;;;9.11;100.00;97363.88;5101924;28;20043;-52
2021/12/10 01:26:09;;;;;;;0.43;0.43;;;;;;;8.84;100.00;97379.59;5078813;28;20097;-52
2021/12/10 01:29:16;;;;;;;0.47;0.47;;;;;;;8.76;100.00;97384.25;5101428;28;20069;-53
2021/12/10 01:32:18;;;;;;;0.47;0.13;;;;;;;8.68;100.00;97383.34;5099347;28;20478;-53
2021/12/10 01:35:28;;;;;;;0.13;0.13;;;;;;;8.59;100.00;97392.03;5114427;28;20046;-53
2021/12/10 01:38:31;;;;;;;8.93;0.77;;;;;;;8.46;100.00;97391.91;5080254;28;20532;-52
2021/12/10 01:41:36;;;;;;;0.57;0.32;;;;;;;8.36;100.00;97390.75;5109321;28;20054;-52
2021/12/10 01:44:43;;;;;;;0.20;0.20;;;;;;;8.26;100.00;97403.47;5098956;28;20131;-52
2021/12/10 01:47:52;;;;;;;0.43;0.32;;;;;;;8.22;100.00;97408.53;5089903;28;20108;-52
2021/12/10 01:50:56;;;;;;;0.47;0.45;;;;;;;8.19;100.00;97409.56;5073546;28;20059;-52
2021/12/10 01:54:05;;;;;;;2.92;0.75;;;;;;;8.09;100.00;97411.16;5074247;28;20480;-52
2021/12/10 01:57:11;;;;;;;0.17;0.17;;;;;;;7.98;100.00;97425.88;5104445;28;20046;-52
2021/12/10 02:00:19;;;;;;;5.10;0.90;;;;;;;7.97;100.00;97420.88;5079621;28;20109;-52
2021/12/10 02:03:23;;;;;;;0.73;0.47;;;;;;;7.84;100.00;97426.25;5089066;28;20040;-52
2021/12/10 02:06:26;;;;;;;0.20;0.20;;;;;;;7.81;100.00;97436.34;5073056;28;20055;-52
2021/12/10 02:09:29;;;;;;;0.65;0.65;;;;;;;7.81;100.00;97432.81;5090052;28;20125;-52
2021/12/10 02:12:32;;;;;;;16.27;1.20;;;;;;;7.74;100.00;97436.91;5072684;28;20074;-52
2021/12/10 02:15:36;;;;;;;0.40;0.40;;;;;;;7.71;100.00;97442.72;5072923;28;20054;-52
2021/12/10 02:18:40;;;;;;;1.75;1.05;;;;;;;7.61;100.00;97439.50;5078294;28;20039;-52
2021/12/10 02:21:44;;;;;;;0.10;0.10;;;;;;;7.61;100.00;97451.34;5086789;28;20047;-52
2021/12/10 02:24:47;;;;;;;1.88;0.68;;;;;;;7.59;100.00;97451.09;5072873;28;20060;-52
2021/12/10 02:27:50;;;;;;;9.18;1.17;;;;;;;7.46;100.00;97445.41;5072532;28;20074;-52
2021/12/10 02:30:54;;;;;;;1.65;0.60;;;;;;;7.50;100.00;97451.41;5098199;28;20074;-52
2021/12/10 02:33:57;;;;;;;6.63;0.68;;;;;;;7.41;100.00;97451.72;5097089;28;20066;-52
2021/12/10 02:37:01;;;;;;;10.98;0.40;;;;;;;7.29;100.00;97453.06;5085156;28;20040;-52
2021/12/10 02:40:06;;;;;;;2.47;0.65;;;;;;;7.27;100.00;97463.88;5084874;28;20563;-52
2021/12/10 02:43:13;;;;;;;0.10;0.10;;;;;;;7.38;100.00;97472.13;5072082;28;20078;-52
2021/12/10 02:46:16;;;;;;;4.03;1.65;;;;;;;7.38;100.00;97471.38;5072842;28;20099;-53
2021/12/10 02:49:19;;;;;;;6.13;0.68;;;;;;;7.28;100.00;97476.44;5087544;28;20082;-52
2021/12/10 02:52:25;;;;;;;0.13;0.13;;;;;;;7.13;100.00;97481.56;5092683;28;20042;-52
2021/12/10 02:55:30;;;;;;;0.20;0.20;;;;;;;7.16;100.00;97480.53;5092713;28;20055;-52
2021/12/10 02:58:34;;;;;;;0.50;0.50;;;;;;;7.22;100.00;97492.34;5075379;28;20460;-52
2021/12/10 03:01:39;;;;;;;5.70;0.57;;;;;;;7.14;100.00;97480.31;5072031;28;20047;-52
2021/12/10 03:04:44;;;;;;;6.15;1.13;;;;;;;7.01;100.00;97499.47;5071954;28;20063;-52
2021/12/10 03:07:47;;;;;;;2.83;0.60;;;;;;;7.08;100.00;97498.94;5072244;28;20120;-52
2021/12/10 03:10:50;;;;;;;0.30;0.30;;;;;;;7.21;100.00;97499.13;5075893;28;20047;-52
2021/12/10 03:13:53;;;;;;;1.55;0.35;;;;;;;7.29;100.00;97497.34;5078831;28;20101;-52
2021/12/10 03:17:01;;;;;;;0.90;0.25;;;;;;;7.15;100.00;97495.63;5081747;28;20062;-52
2021/12/10 03:20:08;;;;;;;1.10;0.77;;;;;;;7.08;100.00;97503.72;5071752;28;20467;-52
2021/12/10 03:23:12;;;;;;;0.45;0.45;;;;;;;6.97;100.00;97507.28;5078172;28;20542;-52
2021/12/10 03:26:19;;;;;;;0.20;0.20;;;;;;;6.90;100.00;97507.81;5107841;28;20536;-52
2021/12/10 03:29:25;;;;;;;0.17;0.17;;;;;;;6.87;100.00;97517.88;5084415;28;20047;-51
2021/12/10 03:32:30;;;;;;;7.38;0.95;;;;;;;6.86;100.00;97516.34;5075327;28;20038;-52
2021/12/10 03:35:43;;;;;;;0.20;0.20;;;;;;;6.76;100.00;97514.38;5071663;28;20040;-52
2021/12/10 03:42:47;;;;;;;0.10;0.10;;;;;;;7.14;100.00;97530.13;5072600;28;20048;-52
2021/12/10 03:45:53;;;;;;;4.47;1.02;;;;;;;7.17;100.00;97534.63;5097365;28;20050;-52
2021/12/10 03:48:56;;;;;;;1.42;0.50;;;;;;;7.22;100.00;97536.63;5093147;28;20043;-52
2021/12/10 03:51:59;;;;;;;0.17;0.17;;;;;;;7.13;100.00;97539.69;5075332;28;20091;-52
2021/12/10 03:55:05;;;;;;;1.30;0.32;;;;;;;7.04;100.00;97544.75;5075611;28;20042;-51
2021/12/10 03:58:09;;;;;;;1.35;0.68;;;;;;;7.04;100.00;97547.53;5088469;28;20047;-52
2021/12/10 04:01:15;;;;;;;0.13;0.13;;;;;;;7.03;100.00;97557.06;5090981;28;20040;-51
2021/12/10 04:04:26;;;;;;;0.10;0.10;;;;;;;6.89;100.00;97553.31;5075294;28;20139;-52
2021/12/10 04:07:29;;;;;;;1.15;1.05;;;;;;;6.79;100.00;97566.69;5082107;28;20047;-52
2021/12/10 04:10:32;;;;;;;10.50;0.57;;;;;;;6.82;100.00;97559.41;5111466;28;20376;-51
2021/12/10 04:13:36;;;;;;;3.08;0.35;;;;;;;6.83;100.00;97571.94;5101202;28;20047;-51
2021/12/10 04:16:39;;;;;;;0.20;0.20;;;;;;;6.89;100.00;97575.44;5074359;28;20526;-52
2021/12/10 04:19:44;;;;;;;0.52;0.52;;;;;;;6.84;100.00;97590.06;5085880;28;20661;-52
2021/12/10 04:22:48;;;;;;;0.40;0.38;;;;;;;6.75;100.00;97585.56;5074811;28;20124;-52
2021/12/10 04:25:51;;;;;;;2.45;0.80;;;;;;;6.79;100.00;97593.59;5115247;28;20074;-52
2021/12/10 04:28:54;;;;;;;0.20;0.20;;;;;;;6.76;100.00;97600.13;5098317;28;20379;-52
2021/12/10 04:32:00;;;;;;;0.40;0.40;;;;;;;6.75;100.00;97593.84;5074243;28;20537;-52
2021/12/10 04:35:04;;;;;;;1.00;0.70;;;;;;;6.83;100.00;97597.59;5074162;28;20048;-52
2021/12/10 04:38:07;;;;;;;2.13;0.32;;;;;;;7.10;100.00;97595.28;5074284;28;20051;-52
2021/12/10 04:41:11;;;;;;;0.20;0.20;;;;;;;7.10;100.00;97603.59;5078546;28;20047;-52
2021/12/10 04:44:14;;;;;;;0.30;0.30;;;;;;;7.20;100.00;97616.66;5092478;28;20076;-52
2021/12/10 04:47:17;;;;;;;0.40;0.40;;;;;;;7.23;100.00;97623.97;5111319;28;20502;-52
2021/12/10 04:50:23;;;;;;;0.47;0.30;;;;;;;7.21;100.00;97622.94;5095005;28;20051;-51
2021/12/10 04:53:27;;;;;;;0.98;0.65;;;;;;;7.23;100.00;97650.88;5098014;28;20034;-51
2021/12/10 04:56:31;;;;;;;0.20;0.20;;;;;;;7.32;100.00;97681.81;5102141;28;20043;-52
2021/12/10 04:59:35;;;;;;;0.20;0.20;;;;;;;7.02;100.00;97682.88;5073957;28;20120;-53
2021/12/10 05:02:39;;;;;;;0.35;0.35;;;;;;;6.68;100.00;97698.69;5089852;28;20182;-53
2021/12/10 05:05:43;;;;;;;0.55;0.43;;;;;;;6.50;100.00;97693.63;5088907;28;20056;-53
2021/12/10 05:08:47;;;;;;;0.20;0.20;;;;;;;6.43;100.00;97694.13;5074246;28;20059;-53
2021/12/10 05:11:50;;;;;;;0.10;0.10;;;;;;;6.32;100.00;97699.63;5074382;28;20116;-53
2021/12/10 05:14:59;;;;;;;0.15;0.15;;;;;;;6.05;100.00;97701.06;5073898;28;20047;-53
2021/12/10 05:18:03;;;;;;;0.15;0.15;;;;;;;5.97;100.00;97714.63;5080047;28;20039;-53
2021/12/10 05:21:08;;;;;;;0.40;0.40;;;;;;;5.88;100.00;97714.81;5077679;28;20042;-56
2021/12/10 05:24:11;;;;;;;0.20;0.20;;;;;;;5.94;100.00;97715.59;5074358;28;20110;-54
2021/12/10 05:27:14;;;;;;;1.88;1.05;;;;;;;5.98;100.00;97716.09;5075021;28;20048;-54
2021/12/10 05:30:21;;;;;;;0.22;0.22;;;;;;;5.96;100.00;97729.66;5104970;28;20089;-53
2021/12/10 05:33:26;;;;;;;0.90;0.60;;;;;;;5.95;100.00;97727.41;5093767;28;20051;-54
2021/12/10 05:36:30;;;;;;;0.10;0.10;;;;;;;5.90;100.00;97728.88;5093901;28;20059;-53
2021/12/10 05:39:33;;;;;;;0.30;0.15;;;;;;;5.90;100.00;97739.94;5091016;28;20042;-54
2021/12/10 05:42:36;;;;;;;0.20;0.20;;;;;;;5.99;100.00;97727.91;5079230;28;20047;-53
2021/12/10 05:45:40;;;;;;;0.30;0.20;;;;;;;6.03;100.00;97739.47;5110728;28;20073;-53
2021/12/10 05:48:44;;;;;;;0.20;0.20;;;;;;;6.02;100.00;97741.47;5105246;28;20046;-53
2021/12/10 05:51:47;;;;;;;0.20;0.20;;;;;;;6.02;100.00;97749.03;5080750;28;20430;-53
2021/12/10 05:54:52;;;;;;;0.20;0.20;;;;;;;6.00;100.00;97760.56;5098053;28;20127;-53
2021/12/10 05:57:55;;;;;;;0.20;0.20;;;;;;;6.00;100.00;97755.03;5073148;28;20124;-53
2021/12/10 06:01:04;;;;;;;0.20;0.20;;;;;;;6.07;100.00;97756.56;5073527;28;20043;-53
2021/12/10 06:04:08;;;;;;;0.10;0.10;;;;;;;5.94;100.00;97737.69;5082724;28;20131;-53
2021/12/10 06:07:10;;;;;;;2.40;0.63;;;;;;;6.03;100.00;97736.72;5107864;28;20050;-53
2021/12/10 06:10:16;;;;;;;0.20;0.20;;;;;;;6.19;100.00;97747.09;5073269;28;20047;-52
2021/12/10 06:13:20;;;;;;;0.30;0.30;;;;;;;6.31;100.00;97772.75;5072560;28;20106;-53
2021/12/10 06:16:23;;;;;;;0.28;0.28;;;;;;;6.40;100.00;97798.16;5100360;28;20107;-53
2021/12/10 06:19:27;;;;;;;0.50;0.50;;;;;;;6.41;100.00;97804.47;5111458;28;20404;-53
2021/12/10 06:22:30;;;;;;;0.20;0.20;;;;;;;6.40;100.00;97798.16;5112799;28;20061;-53
2021/12/10 06:25:35;;;;;;;0.10;0.10;;;;;;;6.51;100.00;97823.09;5096339;28;20105;-52
2021/12/10 06:28:38;;;;;;;0.40;0.40;;;;;;;6.46;100.00;97814.78;5090215;28;20120;-52
2021/12/10 06:31:41;;;;;;;0.90;0.32;;;;;;;6.29;100.00;97820.25;5111273;28;20039;-52
2021/12/10 06:34:44;;;;;;;0.10;0.10;;;;;;;6.18;100.00;97816.66;5072410;28;20051;-52
2021/12/10 06:37:49;;;;;;;0.65;0.65;;;;;;;6.20;100.00;97805.88;5089591;28;20109;-52
2021/12/10 06:40:53;;;;;;;0.88;0.82;;;;;;;6.21;100.00;97812.91;5072144;28;20407;-52
2021/12/10 06:43:56;;;;;;;10.82;2.30;;;;;;;6.36;100.00;97819.00;5093177;28;20490;-52
2021/12/10 06:46:59;;;;;;;2.50;1.13;;;;;;;6.39;100.00;97849.16;5098797;28;20093;-52
2021/12/10 06:50:05;;;;;;;1.35;0.57;;;;;;;6.44;100.00;97853.22;5109768;28;20445;-53
2021/12/10 06:53:08;;;;;;;0.68;0.68;;;;;;;6.21;100.00;97859.91;5092416;28;20047;-53
2021/12/10 06:56:12;;;;;;;1.05;0.95;;;;;;;6.10;100.00;97877.94;5096259;28;20043;-53
2021/12/10 06:59:15;;;;;;;0.30;0.30;;;;;;;6.01;100.00;97878.13;5087318;28;20110;-53
2021/12/10 07:02:19;;;;;;;1.17;0.98;;;;;;;5.98;100.00;97881.09;5072461;28;20057;-52
2021/12/10 07:05:22;;;;;;;1.00;0.98;;;;;;;5.88;100.00;97877.78;5072198;28;20051;-52
2021/12/10 07:08:27;;;;;;;11.23;0.90;;;;;;;5.82;100.00;97887.25;5071974;28;20118;-53
2021/12/10 07:11:30;;;;;;;0.32;0.32;;;;;;;5.80;100.00;97882.22;5071956;28;20042;-53
2021/12/10 07:14:34;;;;;;;0.93;0.55;;;;;;;5.81;100.00;97889.25;5072093;28;20055;-53
2021/12/10 07:17:40;;;;;;;0.47;0.38;;;;;;;5.84;100.00;97899.34;5074231;28;20086;-53
2021/12/10 07:20:43;;;;;;;3.67;0.57;;;;;;;5.97;100.00;97913.50;5078449;28;20047;-53
2021/12/10 07:23:47;;;;;;;0.50;0.50;;;;;;;6.07;100.00;97906.53;5076688;28;20381;-52
2021/12/10 07:26:50;;;;;;;0.68;0.30;;;;;;;6.07;100.00;97901.03;5071552;28;20522;-53
2021/12/10 07:29:53;;;;;;;0.30;0.30;;;;;;;6.02;100.00;97915.53;5087629;28;20070;-53
2021/12/10 07:32:56;;;;;;;0.75;0.73;;;;;;;6.02;100.00;97926.59;5087371;28;20082;-53
2021/12/10 07:35:59;;;;;;;0.22;0.22;;;;;;;6.07;100.00;97939.69;5110945;28;20420;-52
2021/12/10 07:39:03;;;;;;;0.30;0.22;;;;;;;6.06;100.00;97932.66;5071781;28;20495;-53
2021/12/10 07:42:08;;;;;;;0.25;0.25;;;;;;;6.05;100.00;97952.50;5070319;28;20591;-53
2021/12/10 07:45:12;;;;;;;0.10;0.10;;;;;;;6.08;100.00;97968.88;5091033;28;20047;-52
2021/12/10 07:48:19;;;;;;;0.50;0.30;;;;;;;6.06;100.00;97970.59;5109129;28;20054;-53
2021/12/10 07:51:26;;;;;;;0.60;0.60;;;;;;;6.05;100.00;97967.06;5102605;28;20038;-52
2021/12/10 07:54:29;;;;;;;0.40;0.30;;;;;;;5.93;100.00;97967.47;5092281;28;20058;-52
2021/12/10 07:57:32;;;;;;;0.90;0.45;;;;;;;5.85;100.00;97961.63;5091377;28;20047;-52
2021/12/10 08:00:40;;;;;;;0.38;0.35;;;;;;;5.76;100.00;97972.06;5091479;28;20123;-52
2021/12/10 08:03:44;;;;;;;0.15;0.15;;;;;;;5.78;100.00;97989.66;5091053;28;20406;-52
2021/12/10 08:06:48;;;;;;;0.40;0.40;;;;;;;5.81;100.00;97994.22;5091655;28;20054;-63
2021/12/10 08:09:51;;;;;;;0.30;0.30;;;;;;;5.83;100.00;97990.94;5091839;28;20050;-53
2021/12/10 08:12:54;;;;;;;2.92;1.65;;;;;;;5.93;100.00;98006.88;5090911;28;20112;-52
2021/12/10 08:15:57;;;;;;;0.90;0.22;;;;;;;5.93;100.00;98001.38;5089574;28;20581;-52
2021/12/10 08:19:00;;;;;;;0.10;0.03;;;;;;;5.88;100.00;98004.09;5083751;28;20495;-52
2021/12/10 08:22:03;;;;;;;0.20;0.20;;;;;;;5.87;100.00;98005.31;5100883;28;20076;-52
2021/12/10 08:25:08;;;;;;;0.25;0.20;;;;;;;5.76;100.00;97997.66;5111974;28;20399;-51
2021/12/10 08:28:11;;;;;;;0.30;0.30;;;;;;;5.68;100.00;98010.41;5095564;28;20042;-52
2021/12/10 08:31:16;;;;;;;0.15;0.15;;;;;;;5.66;100.00;98010.13;5094910;28;20047;-52
2021/12/10 08:34:19;;;;;;;0.20;0.20;;;;;;;5.68;100.00;98013.16;5078428;28;20043;-52
2021/12/10 08:37:22;;;;;;;0.10;0.10;;;;;;;5.76;100.00;98014.22;5082278;28;20040;-52
2021/12/10 08:40:33;;;;;;;0.35;0.20;;;;;;;5.81;100.00;98010.00;5074734;28;20093;-52
2021/12/10 08:43:36;;;;;;;0.50;0.50;;;;;;;5.78;100.00;98014.50;5095437;28;20051;-52
2021/12/10 08:46:42;;;;;;;2.30;0.40;;;;;;;5.68;100.00;98010.41;5078318;28;20112;-53
2021/12/10 08:49:45;;;;;;;3.55;0.50;;;;;;;5.56;100.00;98016.28;5092995;28;20047;-52
2021/12/10 08:52:47;;;;;;;14.50;0.98;;;;;;;5.59;100.00;98021.59;5076466;28;20047;-52
2021/12/10 08:55:54;;;;;;;0.30;0.30;;;;;;;5.76;100.00;98041.84;5094369;28;20047;-52
2021/12/10 08:58:57;;;;;;;0.25;0.25;;;;;;;5.88;100.00;98049.03;5094376;28;20392;-51
2021/12/10 09:02:01;;;;;;;1.25;0.50;;;;;;;5.96;100.00;98077.75;5082205;28;20134;-52
2021/12/10 09:05:07;;;;;;;0.10;0.10;;;;;;;5.98;100.00;98075.25;5074200;28;20522;-51
2021/12/10 09:08:10;;;;;;;0.65;0.65;;;;;;;6.06;100.00;98081.13;5102684;28;20141;-52
2021/12/10 09:11:14;;;;;;;1.02;0.25;;;;;;;6.24;100.00;98080.03;5073533;28;20431;-53
2021/12/10 09:14:19;;;;;;;0.10;0.10;;;;;;;6.33;100.00;98093.66;5101195;28;20042;-52
2021/12/10 09:17:25;;;;;;;0.10;0.10;;;;;;;6.35;100.00;98089.16;5077901;28;20111;-53
2021/12/10 09:20:35;;;;;;;0.13;0.13;;;;;;;6.29;100.00;98088.34;5093728;28;20403;-52
2021/12/10 09:23:39;;;;;;;1.58;0.45;;;;;;;6.21;100.00;98092.81;5106082;28;20058;-52
2021/12/10 09:26:45;;;;;;;4.63;0.73;;;;;;;6.35;100.00;98102.97;5093739;28;20047;-52
2021/12/10 09:29:52;;;;;;;0.20;0.20;;;;;;;6.49;100.00;98101.34;5073258;28;20055;-52
2021/12/10 09:32:55;;;;;;;0.80;0.20;;;;;;;6.67;100.00;98109.28;5092615;28;20117;-52
2021/12/10 09:35:59;;;;;;;5.88;0.90;;;;;;;6.71;100.00;98105.03;5103799;28;20043;-52
2021/12/10 09:39:05;;;;;;;1.95;1.05;;;;;;;7.00;100.00;98117.03;5094339;28;20047;-52
2021/12/10 09:42:09;;;;;;;0.50;0.50;;;;;;;7.09;100.00;98120.38;5113724;28;20407;-52
2021/12/10 09:45:16;;;;;;;0.85;0.43;;;;;;;7.15;100.00;98128.72;5073253;28;20591;-52
2021/12/10 09:48:21;;;;;;;3.22;0.32;;;;;;;7.17;100.00;98126.22;5083819;28;20432;-52
2021/12/10 09:51:26;;;;;;;0.50;0.50;;;;;;;7.08;100.00;98123.66;5089676;28;20038;-51
2021/12/10 09:54:32;;;;;;;0.10;0.10;;;;;;;6.88;100.00;98124.53;5106910;28;20050;-52
2021/12/10 09:57:37;;;;;;;0.77;0.45;;;;;;;6.93;100.00;98125.81;5078900;28;20094;-52
2021/12/10 10:01:04;;;;;;;6.90;1.08;;;;;;;7.02;100.00;98139.47;5078107;28;20098;-52
2021/12/10 10:04:10;;;;;;;14.63;1.05;;;;;;;7.07;100.00;98147.81;5072486;28;20071;-52
2021/12/10 10:07:16;;;;;;;0.20;0.20;;;;;;;7.10;100.00;98143.28;5072852;28;20063;-52
2021/12/10 10:10:20;;;;;;;0.70;0.47;;;;;;;7.18;100.00;98158.19;5095320;28;20553;-52
2021/12/10 10:13:28;;;;;;;9.82;0.60;;;;;;;7.37;100.00;98162.06;5089812;28;20043;-52
2021/12/10 10:16:35;;;;;;;1.08;0.52;;;;;;;7.55;100.00;98161.69;5072147;28;20060;-52
2021/12/10 10:19:41;;;;;;;6.72;0.95;;;;;;;7.60;100.00;98164.47;5091858;28;20093;-53
2021/12/10 10:22:47;;;;;;;4.88;0.82;;;;;;;7.69;100.00;98176.59;5091506;28;20129;-52
2021/12/10 10:25:58;;;;;;;0.10;0.10;;;;;;;7.68;100.00;98180.63;5086041;28;20048;-51
2021/12/10 10:29:07;;;;;;;0.20;0.20;;;;;;;7.59;100.00;98179.59;5072519;28;20050;-51
2021/12/10 10:32:15;;;;;;;1.88;0.77;;;;;;;7.43;100.00;98191.31;5078462;28;20047;-52
2021/12/10 10:35:23;;;;;;;0.40;0.40;;;;;;;7.39;100.00;98190.03;5075556;28;20083;-51
2021/12/10 10:38:27;;;;;;;0.10;0.10;;;;;;;7.25;100.00;98193.72;5092803;28;20043;-51
2021/12/10 10:41:31;;;;;;;0.30;0.30;;;;;;;7.27;100.00;98208.59;5073306;28;20052;-55
2021/12/10 10:44:34;;;;;;;7.85;0.93;;;;;;;7.23;100.00;98204.53;5103577;28;20078;-55
2021/12/10 10:47:36;;;;;;;0.40;0.40;;;;;;;7.21;100.00;98212.56;5075270;28;20035;-55
2021/12/10 10:50:45;;;;;;;14.00;1.17;;;;;;;7.24;100.00;98215.09;5079972;28;20151;-55
2021/12/10 10:53:52;;;;;;;6.20;2.15;;;;;;;7.26;100.00;98215.38;5086457;28;20514;-55
2021/12/10 10:56:55;;;;;;;0.65;0.65;;;;;;;7.23;100.00;98230.22;5072266;28;20055;-55
2021/12/10 11:00:11;;;;;;;6.80;1.38;;;;;;;7.29;100.00;98238.56;5080610;28;20070;-56
2021/12/10 11:03:18;;;;;;;0.55;0.50;;;;;;;7.49;100.00;98241.94;5084436;28;20047;-56
2021/12/10 11:06:49;;;;;;;19.02;1.23;;;;;;;7.81;100.00;98233.59;5071665;28;20047;-56
2021/12/10 11:10:05;;;;;;;0.45;0.30;;;;;;;8.04;100.00;98235.19;5071497;28;20059;-56
2021/12/10 11:13:23;;;;;;;0.95;0.73;;;;;;;8.19;100.00;98224.66;5089618;28;20514;-57
2021/12/10 11:16:29;;;;;;;9.73;0.57;;;;;;;8.21;100.00;98236.78;5092291;28;20132;-56
2021/12/10 11:19:34;;;;;;;11.48;1.33;;;;;;;8.34;100.00;98231.56;5092654;28;20047;-55
2021/12/10 11:22:46;;;;;;;8.98;0.88;;;;;;;8.53;100.00;98237.44;5109239;28;20087;-56
2021/12/10 11:25:53;;;;;;;0.60;0.60;;;;;;;8.67;100.00;98236.44;5072213;28;20059;-56
2021/12/10 11:28:55;;;;;;;0.43;0.40;;;;;;;8.90;100.00;98232.44;5083545;28;20539;-57
2021/12/10 11:32:15;;;;;;;2.55;0.73;;;;;;;8.98;100.00;98238.25;5079680;28;20089;-57
2021/12/10 11:35:26;;;;;;;0.73;0.73;;;;;;;9.00;100.00;98247.59;5071730;28;20534;-56
2021/12/10 11:38:32;;;;;;;0.20;0.20;;;;;;;8.93;100.00;98252.88;5079972;28;20433;-57
2021/12/10 11:41:38;;;;;;;0.10;0.10;;;;;;;8.75;100.00;98264.47;5091501;28;20042;-55
2021/12/10 11:45:05;;;;;;;2.35;0.10;;;;;;;8.59;100.00;98279.81;5079137;28;20102;-57
2021/12/10 11:48:12;;;;;;;0.30;0.30;;;;;;;8.27;100.00;98272.91;5071765;28;20051;-59
2021/12/10 11:51:22;;;;;;;0.55;0.55;;;;;;;7.97;100.00;98285.59;5085230;28;20396;-58
2021/12/10 11:54:47;;;;;;;0.77;0.68;;;;;;;7.87;100.00;98287.03;5079875;28;20043;-57
2021/12/10 11:57:50;;;;;;;0.65;0.30;;;;;;;7.78;100.00;98279.66;5107499;28;20578;-56
2021/12/10 12:00:54;;;;;;;0.32;0.32;;;;;;;7.68;100.00;98280.34;5081480;28;20089;-57
2021/12/10 12:03:57;;;;;;;0.30;0.30;;;;;;;7.59;100.00;98273.75;5082735;28;20190;-58
2021/12/10 12:07:22;;;;;;;3.30;0.35;;;;;;;7.52;100.00;98279.75;5075361;28;20093;-57
2021/12/10 12:10:38;;;;;;;1.98;0.43;;;;;;;7.55;100.00;98284.31;5080786;28;20447;-57
2021/12/10 12:13:51;;;;;;;0.20;0.20;;;;;;;7.56;100.00;98296.91;5094907;28;20147;-56
2021/12/10 12:28:18;;;;;;;0.10;0.10;;;;;;;8.04;100.00;98312.81;6197285;22;1348114;-54
2021/12/10 12:31:26;;;;;;;3.72;1.13;;;;;;;8.13;100.00;98309.84;6252426;23;20146;-54
2021/12/10 12:34:30;;;;;;;0.63;0.20;;;;;;;8.20;100.00;98309.38;6252668;23;20058;-54
2021/12/10 12:37:33;;;;;;;1.42;0.70;;;;;;;8.31;100.00;98312.25;6252852;23;20035;-54
2021/12/10 12:40:38;;;;;;;0.90;0.65;;;;;;;8.43;100.00;98319.34;6253091;23;20061;-54
2021/12/10 12:56:38;;;;;;;1.42;0.45;;;;;;;8.77;100.00;98318.19;6222535;22;1461394;-55
2021/12/10 12:59:41;;;;;;;4.13;2.22;;;;;;;8.99;100.00;98312.69;6283843;22;20035;-56
2021/12/10 13:02:49;;;;;;;0.60;0.45;;;;;;;9.11;100.00;98319.81;6283556;22;20026;-55
2021/12/10 13:05:58;;;;;;;0.80;0.80;;;;;;;9.11;100.00;98319.03;6283854;22;20102;-55
2021/12/10 13:09:10;;;;;;;5.03;1.02;;;;;;;9.21;100.00;98322.31;6283918;22;20065;-55
2021/12/10 13:12:32;;;;;;;4.47;0.60;;;;;;;9.34;100.00;98339.25;6283840;22;20397;-55
2021/12/10 13:15:35;;;;;;;0.30;0.30;;;;;;;9.22;100.00;98354.41;6283524;22;20081;-57
2021/12/10 13:18:43;;;;;;;0.32;0.32;;;;;;;8.88;100.00;98365.41;6283556;22;20065;-56
2021/12/10 13:21:52;;;;;;;0.17;0.17;;;;;;;8.70;100.00;98384.53;6283776;22;20022;-57
2021/12/10 13:25:03;;;;;;;0.70;0.40;;;;;;;8.54;100.00;98383.19;6283892;22;20085;-56
2021/12/10 13:28:06;;;;;;;0.20;0.20;;;;;;;8.30;100.00;98391.13;6283658;22;20077;-56
2021/12/10 13:31:13;;;;;;;0.30;0.30;;;;;;;8.21;100.00;98402.41;6284137;22;20085;-56
2021/12/10 13:34:16;;;;;;;0.30;0.30;;;;;;;8.19;100.00;98399.38;6283549;22;20045;-55
2021/12/10 13:37:21;;;;;;;0.28;0.28;;;;;;;8.08;100.00;98404.81;6284164;22;20402;-56
2021/12/10 13:40:27;;;;;;;0.40;0.40;;;;;;;7.92;100.00;98399.94;6284200;22;20030;-56
2021/12/10 13:43:32;;;;;;;0.30;0.30;;;;;;;7.80;100.00;98409.41;6266181;22;20021;-55
2021/12/10 13:46:46;;;;;;;0.10;0.10;;;;;;;7.67;100.00;98409.06;6283833;22;20392;-56
2021/12/10 13:49:56;;;;;;;0.20;0.20;;;;;;;7.54;100.00;98415.75;6283311;22;20026;-56
2021/12/10 13:53:06;;;;;;;0.28;0.28;;;;;;;7.37;100.00;98419.59;6283185;22;20108;-56
2021/12/10 13:56:12;;;;;;;1.65;0.77;;;;;;;7.25;100.00;98427.06;6280694;22;20026;-56
2021/12/10 13:59:20;;;;;;;0.35;0.35;;;;;;;7.16;100.00;98429.22;6276354;22;20066;-56
2021/12/10 14:02:43;;;;;;;1.13;0.40;;;;;;;7.05;100.00;98440.16;6276877;22;20027;-55
2021/12/10 14:05:48;;;;;;;5.35;1.42;;;;;;;6.93;100.00;98438.50;6276644;22;20029;-56
2021/12/10 14:09:10;;;;;;;1.25;0.98;;;;;;;6.82;100.00;98439.13;6276966;22;20459;-55
2021/12/10 14:12:37;;;;;;;0.70;0.68;;;;;;;6.80;100.00;98447.13;6276785;22;20344;-55
2021/12/10 14:16:00;;;;;;;0.73;0.73;;;;;;;6.81;100.00;98443.91;6275724;22;20069;-54
2021/12/10 14:19:03;;;;;;;0.95;0.73;;;;;;;6.75;100.00;98450.63;6276213;22;20458;-54
2021/12/10 14:22:10;;;;;;;1.23;0.68;;;;;;;6.74;100.00;98455.38;6276374;22;20027;-55
2021/12/10 14:25:26;;;;;;;0.30;0.30;;;;;;;6.62;100.00;98458.50;6276582;22;20030;-54
2021/12/10 14:28:39;;;;;;;0.50;0.43;;;;;;;6.70;100.00;98462.34;6276078;22;20023;-54
2021/12/10 14:31:45;;;;;;;1.58;0.88;;;;;;;6.73;100.00;98462.19;6275672;22;20030;-54
2021/12/10 14:35:09;;;;;;;0.55;0.28;;;;;;;6.83;100.00;98462.78;6275729;22;20076;-54
2021/12/10 14:38:13;;;;;;;0.82;0.50;;;;;;;6.92;100.00;98476.50;6276683;22;20025;-55
2021/12/10 14:41:26;;;;;;;0.77;0.63;;;;;;;6.99;100.00;98478.06;6276181;22;20026;-54
2021/12/10 14:44:34;;;;;;;0.10;0.10;;;;;;;6.93;100.00;98489.06;6275767;22;20026;-54
2021/12/10 14:47:37;;;;;;;6.32;0.75;;;;;;;6.85;100.00;98494.25;6276061;22;20025;-54
2021/12/10 14:51:14;;;;;;;3.25;0.98;;;;;;;6.94;100.00;98495.38;6275912;22;20039;-54
2021/12/10 14:54:18;;;;;;;7.88;0.82;;;;;;;7.08;100.00;98508.38;6275235;22;20508;-54
2021/12/10 14:57:43;;;;;;;0.95;0.63;;;;;;;7.05;100.00;98510.13;6275837;22;20049;-54
2021/12/10 15:00:52;;;;;;;3.42;0.95;;;;;;;7.12;100.00;98511.72;6275962;22;20031;-54
2021/12/10 15:03:55;;;;;;;5.05;1.17;;;;;;;7.05;100.00;98512.13;6275145;22;20077;-54
2021/12/10 15:07:01;;;;;;;3.28;1.80;;;;;;;7.02;100.00;98521.41;6275845;22;20396;-54
2021/12/10 15:10:23;;;;;;;7.45;0.90;;;;;;;7.01;100.00;98542.78;6276385;22;20022;-55
2021/12/10 15:13:36;;;;;;;1.52;1.17;;;;;;;7.05;100.00;98561.94;6276350;22;20092;-54
2021/12/10 15:16:46;;;;;;;7.38;0.70;;;;;;;7.16;100.00;98557.31;6276017;22;20328;-54